sensor_id;sensor_type;location;lat;lon;timestamp;pressure;altitude;pressure_sealevel;temperature
63297;BMP280;49419;51.716;-4.948;2022-10-31T00:01:49;100799.56;;;16.63
63297;BMP280;49419;51.716;-4.948;2022-10-31T00:04:14;100812.56;;;16.66
63297;BMP280;49419;51.716;-4.948;2022-10-31T00:06:39;100809.13;;;16.69
63297;BMP280;49419;51.716;-4.948;2022-10-31T00:09:05;100802.25;;;16.71
63297;BMP280;49419;51.716;-4.948;2022-10-31T00:11:30;100807.47;;;16.75
63297;BMP280;49419;51.716;-4.948;2022-10-31T00:13:59;100802.31;;;16.76
63297;BMP280;49419;51.716;-4.948;2022-10-31T00:16:27;100792.81;;;16.77
63297;BMP280;49419;51.716;-4.948;2022-10-31T00:18:58;100798.84;;;16.74
63297;BMP280;49419;51.716;-4.948;2022-10-31T00:21:24;100792.81;;;16.77
63297;BMP280;49419;51.716;-4.948;2022-10-31T00:23:50;100791.97;;;16.76
63297;BMP280;49419;51.716;-4.948;2022-10-31T00:26:16;100794.59;;;16.79
63297;BMP280;49419;51.716;-4.948;2022-10-31T00:28:42;100788.53;;;16.79
63297;BMP280;49419;51.716;-4.948;2022-10-31T00:31:09;100792.88;;;16.80
63297;BMP280;49419;51.716;-4.948;2022-10-31T00:33:37;100796.38;;;16.83
63297;BMP280;49419;51.716;-4.948;2022-10-31T00:36:03;100800.69;;;16.83
63297;BMP280;49419;51.716;-4.948;2022-10-31T00:38:29;100785.13;;;16.81
63297;BMP280;49419;51.716;-4.948;2022-10-31T00:40:55;100791.16;;;16.82
63297;BMP280;49419;51.716;-4.948;2022-10-31T00:43:20;100785.13;;;16.81
63297;BMP280;49419;51.716;-4.948;2022-10-31T00:45:46;100785.97;;;16.80
63297;BMP280;49419;51.716;-4.948;2022-10-31T00:48:11;100782.53;;;16.81
63297;BMP280;49419;51.716;-4.948;2022-10-31T00:50:37;100788.56;;;16.80
63297;BMP280;49419;51.716;-4.948;2022-10-31T00:53:03;100786.81;;;16.78
63297;BMP280;49419;51.716;-4.948;2022-10-31T00:55:29;100788.47;;;16.74
63297;BMP280;49419;51.716;-4.948;2022-10-31T00:57:54;100795.41;;;16.75
63297;BMP280;49419;51.716;-4.948;2022-10-31T01:00:20;100785.00;;;16.74
63297;BMP280;49419;51.716;-4.948;2022-10-31T01:02:45;100780.72;;;16.76
63297;BMP280;49419;51.716;-4.948;2022-10-31T01:05:11;100783.28;;;16.74
63297;BMP280;49419;51.716;-4.948;2022-10-31T01:07:38;100782.38;;;16.73
63297;BMP280;49419;51.716;-4.948;2022-10-31T01:10:05;100784.94;;;16.68
63297;BMP280;49419;51.716;-4.948;2022-10-31T01:12:45;100765.03;;;16.67
63297;BMP280;49419;51.716;-4.948;2022-10-31T01:15:12;100781.41;;;16.65
63297;BMP280;49419;51.716;-4.948;2022-10-31T01:17:38;100782.28;;;16.65
63297;BMP280;49419;51.716;-4.948;2022-10-31T01:20:05;100772.81;;;16.66
63297;BMP280;49419;51.716;-4.948;2022-10-31T01:22:31;100789.22;;;16.66
63297;BMP280;49419;51.716;-4.948;2022-10-31T01:24:56;100785.81;;;16.69
63297;BMP280;49419;51.716;-4.948;2022-10-31T01:27:22;100774.53;;;16.67
63297;BMP280;49419;51.716;-4.948;2022-10-31T01:29:47;100790.13;;;16.68
63297;BMP280;49419;51.716;-4.948;2022-10-31T01:32:13;100777.16;;;16.70
63297;BMP280;49419;51.716;-4.948;2022-10-31T01:34:38;100782.38;;;16.73
63297;BMP280;49419;51.716;-4.948;2022-10-31T01:37:03;100770.31;;;16.74
63297;BMP280;49419;51.716;-4.948;2022-10-31T01:39:29;100766.91;;;16.77
63297;BMP280;49419;51.716;-4.948;2022-10-31T01:41:54;100766.94;;;16.78
63297;BMP280;49419;51.716;-4.948;2022-10-31T01:52:11;100767.84;;;16.80
63297;BMP280;49419;51.716;-4.948;2022-10-31T01:54:39;100754.84;;;16.79
63297;BMP280;49419;51.716;-4.948;2022-10-31T01:57:06;100766.06;;;16.79
63297;BMP280;49419;51.716;-4.948;2022-10-31T01:59:36;100759.16;;;16.78
63297;BMP280;49419;51.716;-4.948;2022-10-31T02:02:03;100755.63;;;16.73
63297;BMP280;49419;51.716;-4.948;2022-10-31T02:04:29;100753.88;;;16.73
63297;BMP280;49419;51.716;-4.948;2022-10-31T02:07:03;100760.84;;;16.76
63297;BMP280;49419;51.716;-4.948;2022-10-31T02:09:31;100765.19;;;16.76
63297;BMP280;49419;51.716;-4.948;2022-10-31T02:11:58;100752.19;;;16.74
63297;BMP280;49419;51.716;-4.948;2022-10-31T02:14:25;100752.19;;;16.74
63297;BMP280;49419;51.716;-4.948;2022-10-31T02:16:54;100746.13;;;16.74
63297;BMP280;49419;51.716;-4.948;2022-10-31T02:19:30;100732.31;;;16.73
63297;BMP280;49419;51.716;-4.948;2022-10-31T02:22:09;100740.94;;;16.73
63297;BMP280;49419;51.716;-4.948;2022-10-31T02:30:12;100738.22;;;16.65
63297;BMP280;49419;51.716;-4.948;2022-10-31T02:35:45;100732.19;;;16.63
63297;BMP280;49419;51.716;-4.948;2022-10-31T02:41:15;100724.28;;;16.56
63297;BMP280;49419;51.716;-4.948;2022-10-31T02:43:57;100738.16;;;16.59
63297;BMP280;49419;51.716;-4.948;2022-10-31T02:46:40;100730.44;;;16.62
63297;BMP280;49419;51.716;-4.948;2022-10-31T02:49:16;100736.47;;;16.63
63297;BMP280;49419;51.716;-4.948;2022-10-31T02:51:43;100736.47;;;16.63
63297;BMP280;49419;51.716;-4.948;2022-10-31T02:54:23;100736.47;;;16.63
63297;BMP280;49419;51.716;-4.948;2022-10-31T02:56:51;100735.72;;;16.68
63297;BMP280;49419;51.716;-4.948;2022-10-31T02:59:18;100733.97;;;16.69
63297;BMP280;49419;51.716;-4.948;2022-10-31T03:02:01;100732.28;;;16.71
63297;BMP280;49419;51.716;-4.948;2022-10-31T03:04:41;100729.63;;;16.68
63297;BMP280;49419;51.716;-4.948;2022-10-31T03:07:35;100733.97;;;16.69
63297;BMP280;49419;51.716;-4.948;2022-10-31T03:10:24;100731.41;;;16.69
63297;BMP280;49419;51.716;-4.948;2022-10-31T03:13:24;100727.09;;;16.71
63297;BMP280;49419;51.716;-4.948;2022-10-31T03:18:34;100722.75;;;16.68
63297;BMP280;49419;51.716;-4.948;2022-10-31T03:21:16;100711.53;;;16.69
63297;BMP280;49419;51.716;-4.948;2022-10-31T03:23:46;100703.72;;;16.68
63297;BMP280;49419;51.716;-4.948;2022-10-31T03:26:13;100719.22;;;16.65
63297;BMP280;49419;51.716;-4.948;2022-10-31T03:28:46;100717.50;;;16.64
63297;BMP280;49419;51.716;-4.948;2022-10-31T03:31:18;100698.50;;;16.65
63297;BMP280;49419;51.716;-4.948;2022-10-31T03:33:45;100700.28;;;16.69
63297;BMP280;49419;51.716;-4.948;2022-10-31T03:36:14;100699.44;;;16.70
63297;BMP280;49419;51.716;-4.948;2022-10-31T03:38:40;100691.69;;;16.73
63297;BMP280;49419;51.716;-4.948;2022-10-31T03:41:10;100681.31;;;16.71
63297;BMP280;49419;51.716;-4.948;2022-10-31T03:43:41;100685.66;;;16.75
63297;BMP280;49419;51.716;-4.948;2022-10-31T03:46:07;100691.75;;;16.75
63297;BMP280;49419;51.716;-4.948;2022-10-31T03:48:33;100684.84;;;16.76
63297;BMP280;49419;51.716;-4.948;2022-10-31T03:51:22;100690.88;;;16.76
63297;BMP280;49419;51.716;-4.948;2022-10-31T03:54:01;100682.25;;;16.76
63297;BMP280;49419;51.716;-4.948;2022-10-31T03:59:13;100677.06;;;16.76
63297;BMP280;49419;51.716;-4.948;2022-10-31T04:01:47;100681.41;;;16.78
63297;BMP280;49419;51.716;-4.948;2022-10-31T04:04:14;100666.69;;;16.76
63297;BMP280;49419;51.716;-4.948;2022-10-31T04:06:42;100679.63;;;16.74
63297;BMP280;49419;51.716;-4.948;2022-10-31T04:09:09;100676.22;;;16.75
63297;BMP280;49419;51.716;-4.948;2022-10-31T04:11:38;100675.34;;;16.76
63297;BMP280;49419;51.716;-4.948;2022-10-31T04:14:06;100685.69;;;16.76
63297;BMP280;49419;51.716;-4.948;2022-10-31T04:16:33;100670.13;;;16.75
63297;BMP280;49419;51.716;-4.948;2022-10-31T04:18:59;100679.63;;;16.74
63297;BMP280;49419;51.716;-4.948;2022-10-31T04:21:30;100673.53;;;16.73
63297;BMP280;49419;51.716;-4.948;2022-10-31T04:23:56;100666.69;;;16.76
63297;BMP280;49419;51.716;-4.948;2022-10-31T04:26:22;100664.13;;;16.77
63297;BMP280;49419;51.716;-4.948;2022-10-31T04:28:47;100664.13;;;16.77
63297;BMP280;49419;51.716;-4.948;2022-10-31T04:31:13;100663.28;;;16.78
63297;BMP280;49419;51.716;-4.948;2022-10-31T04:33:38;100666.75;;;16.80
63297;BMP280;49419;51.716;-4.948;2022-10-31T04:36:04;100667.66;;;16.82
63297;BMP280;49419;51.716;-4.948;2022-10-31T04:38:30;100659.84;;;16.81
63297;BMP280;49419;51.716;-4.948;2022-10-31T04:40:55;100651.19;;;16.82
63297;BMP280;49419;51.716;-4.948;2022-10-31T04:43:20;100651.19;;;16.82
63297;BMP280;49419;51.716;-4.948;2022-10-31T04:45:46;100655.56;;;16.84
63297;BMP280;49419;51.716;-4.948;2022-10-31T04:48:11;100655.56;;;16.84
63297;BMP280;49419;51.716;-4.948;2022-10-31T04:50:36;100658.22;;;16.87
63297;BMP280;49419;51.716;-4.948;2022-10-31T04:53:02;100649.59;;;16.90
63297;BMP280;49419;51.716;-4.948;2022-10-31T04:55:27;100651.28;;;16.88
63297;BMP280;49419;51.716;-4.948;2022-10-31T04:57:53;100652.19;;;16.90
63297;BMP280;49419;51.716;-4.948;2022-10-31T05:00:20;100648.69;;;16.89
63297;BMP280;49419;51.716;-4.948;2022-10-31T05:02:47;100647.91;;;16.92
63297;BMP280;49419;51.716;-4.948;2022-10-31T05:05:14;100653.06;;;16.92
63297;BMP280;49419;51.716;-4.948;2022-10-31T05:07:45;100646.13;;;16.91
63297;BMP280;49419;51.716;-4.948;2022-10-31T05:10:13;100640.09;;;16.90
63297;BMP280;49419;51.716;-4.948;2022-10-31T05:12:45;100648.75;;;16.92
63297;BMP280;49419;51.716;-4.948;2022-10-31T05:15:11;100640.09;;;16.90
63297;BMP280;49419;51.716;-4.948;2022-10-31T05:17:37;100639.22;;;16.91
63297;BMP280;49419;51.716;-4.948;2022-10-31T05:20:05;100651.31;;;16.91
63297;BMP280;49419;51.716;-4.948;2022-10-31T05:22:31;100631.41;;;16.88
63297;BMP280;49419;51.716;-4.948;2022-10-31T05:24:56;100633.16;;;16.88
63297;BMP280;49419;51.716;-4.948;2022-10-31T05:27:22;100627.88;;;16.82
63297;BMP280;49419;51.716;-4.948;2022-10-31T05:29:49;100630.44;;;16.79
63297;BMP280;49419;51.716;-4.948;2022-10-31T05:32:15;100633.06;;;16.80
63297;BMP280;49419;51.716;-4.948;2022-10-31T05:34:40;100638.22;;;16.79
63297;BMP280;49419;51.716;-4.948;2022-10-31T05:37:06;100632.19;;;16.78
63297;BMP280;49419;51.716;-4.948;2022-10-31T05:39:31;100636.50;;;16.79
63297;BMP280;49419;51.716;-4.948;2022-10-31T05:41:56;100642.56;;;16.80
63297;BMP280;49419;51.716;-4.948;2022-10-31T05:44:22;100633.06;;;16.80
63297;BMP280;49419;51.716;-4.948;2022-10-31T05:46:47;100628.75;;;16.81
63297;BMP280;49419;51.716;-4.948;2022-10-31T05:49:12;100622.69;;;16.80
63297;BMP280;49419;51.716;-4.948;2022-10-31T05:51:38;100626.19;;;16.82
63297;BMP280;49419;51.716;-4.948;2022-10-31T05:54:05;100625.31;;;16.83
63297;BMP280;49419;51.716;-4.948;2022-10-31T05:56:31;100627.06;;;16.86
63297;BMP280;49419;51.716;-4.948;2022-10-31T05:58:56;100611.50;;;16.83
63297;BMP280;49419;51.716;-4.948;2022-10-31T06:01:22;100611.50;;;16.84
63297;BMP280;49419;51.716;-4.948;2022-10-31T06:03:47;100615.81;;;16.82
63297;BMP280;49419;51.716;-4.948;2022-10-31T06:06:12;100614.09;;;16.84
63297;BMP280;49419;51.716;-4.948;2022-10-31T06:08:38;100614.09;;;16.84
63297;BMP280;49419;51.716;-4.948;2022-10-31T06:11:04;100605.44;;;16.82
63297;BMP280;49419;51.716;-4.948;2022-10-31T06:13:32;100604.59;;;16.83
63297;BMP280;49419;51.716;-4.948;2022-10-31T06:15:57;100605.44;;;16.82
63297;BMP280;49419;51.716;-4.948;2022-10-31T06:18:23;100613.19;;;16.81
63297;BMP280;49419;51.716;-4.948;2022-10-31T06:20:48;100613.22;;;16.82
63297;BMP280;49419;51.716;-4.948;2022-10-31T06:23:13;100607.16;;;16.80
63297;BMP280;49419;51.716;-4.948;2022-10-31T06:25:39;100607.16;;;16.80
63297;BMP280;49419;51.716;-4.948;2022-10-31T06:28:05;100607.97;;;16.79
63297;BMP280;49419;51.716;-4.948;2022-10-31T06:30:30;100607.97;;;16.79
63297;BMP280;49419;51.716;-4.948;2022-10-31T06:33:04;100604.53;;;16.79
63297;BMP280;49419;51.716;-4.948;2022-10-31T06:35:30;100597.66;;;16.81
63297;BMP280;49419;51.716;-4.948;2022-10-31T06:37:56;100603.66;;;16.78
63297;BMP280;49419;51.716;-4.948;2022-10-31T06:40:22;100606.25;;;16.78
63297;BMP280;49419;51.716;-4.948;2022-10-31T06:42:47;100597.59;;;16.76
63297;BMP280;49419;51.716;-4.948;2022-10-31T06:45:20;100600.22;;;16.79
63297;BMP280;49419;51.716;-4.948;2022-10-31T06:47:50;100600.19;;;16.76
63297;BMP280;49419;51.716;-4.948;2022-10-31T06:50:16;100601.03;;;16.74
63297;BMP280;49419;51.716;-4.948;2022-10-31T06:52:42;100588.03;;;16.73
63297;BMP280;49419;51.716;-4.948;2022-10-31T06:55:07;100588.94;;;16.74
63297;BMP280;49419;51.716;-4.948;2022-10-31T06:57:32;100591.53;;;16.74
63297;BMP280;49419;51.716;-4.948;2022-10-31T06:59:58;100606.22;;;16.74
63297;BMP280;49419;51.716;-4.948;2022-10-31T07:02:23;100598.41;;;16.73
63297;BMP280;49419;51.716;-4.948;2022-10-31T07:04:48;100601.88;;;16.74
63297;BMP280;49419;51.716;-4.948;2022-10-31T07:07:14;100598.41;;;16.73
63297;BMP280;49419;51.716;-4.948;2022-10-31T07:09:39;100596.69;;;16.72
63297;BMP280;49419;51.716;-4.948;2022-10-31T07:12:05;100588.88;;;16.70
63297;BMP280;49419;51.716;-4.948;2022-10-31T07:14:30;100598.41;;;16.73
63297;BMP280;49419;51.716;-4.948;2022-10-31T07:16:56;100598.47;;;16.75
63297;BMP280;49419;51.716;-4.948;2022-10-31T07:19:21;100601.91;;;16.76
63297;BMP280;49419;51.716;-4.948;2022-10-31T07:21:46;100602.75;;;16.75
63297;BMP280;49419;51.716;-4.948;2022-10-31T07:24:12;100607.97;;;16.76
63297;BMP280;49419;51.716;-4.948;2022-10-31T07:26:37;100604.50;;;16.76
63297;BMP280;49419;51.716;-4.948;2022-10-31T07:29:03;100605.38;;;16.76
63297;BMP280;49419;51.716;-4.948;2022-10-31T07:31:28;100604.53;;;16.77
63297;BMP280;49419;51.716;-4.948;2022-10-31T07:33:53;100610.56;;;16.76
63297;BMP280;49419;51.716;-4.948;2022-10-31T07:36:19;100601.94;;;16.77
63297;BMP280;49419;51.716;-4.948;2022-10-31T07:38:44;100611.47;;;16.80
63297;BMP280;49419;51.716;-4.948;2022-10-31T07:41:12;100609.75;;;16.80
63297;BMP280;49419;51.716;-4.948;2022-10-31T07:43:37;100609.75;;;16.82
63297;BMP280;49419;51.716;-4.948;2022-10-31T07:46:03;100615.84;;;16.85
63297;BMP280;49419;51.716;-4.948;2022-10-31T07:48:28;100615.84;;;16.85
63297;BMP280;49419;51.716;-4.948;2022-10-31T07:50:54;100608.09;;;16.88
63297;BMP280;49419;51.716;-4.948;2022-10-31T07:53:20;100606.38;;;16.87
63297;BMP280;49419;51.716;-4.948;2022-10-31T07:55:45;100611.53;;;16.86
63297;BMP280;49419;51.716;-4.948;2022-10-31T07:58:13;100617.63;;;16.94
63297;BMP280;49419;51.716;-4.948;2022-10-31T08:00:40;100618.56;;;16.97
63297;BMP280;49419;51.716;-4.948;2022-10-31T08:03:09;100612.50;;;16.98
63297;BMP280;49419;51.716;-4.948;2022-10-31T08:05:35;100627.22;;;17.01
63297;BMP280;49419;51.716;-4.948;2022-10-31T08:08:01;100619.47;;;17.02
63297;BMP280;49419;51.716;-4.948;2022-10-31T08:10:27;100624.66;;;17.02
63297;BMP280;49419;51.716;-4.948;2022-10-31T08:13:01;100624.69;;;17.05
63297;BMP280;49419;51.716;-4.948;2022-10-31T08:15:26;100612.59;;;17.05
63297;BMP280;49419;51.716;-4.948;2022-10-31T08:17:52;100612.59;;;17.05
63297;BMP280;49419;51.716;-4.948;2022-10-31T08:20:18;100618.63;;;17.06
63297;BMP280;49419;51.716;-4.948;2022-10-31T08:22:52;100617.78;;;17.07
63297;BMP280;49419;51.716;-4.948;2022-10-31T08:25:18;100618.66;;;17.07
63297;BMP280;49419;51.716;-4.948;2022-10-31T08:27:48;100621.28;;;17.10
63297;BMP280;49419;51.716;-4.948;2022-10-31T08:30:16;100626.53;;;17.12
63297;BMP280;49419;51.716;-4.948;2022-10-31T08:33:14;100625.69;;;17.14
63297;BMP280;49419;51.716;-4.948;2022-10-31T08:35:46;100613.59;;;17.16
63297;BMP280;49419;51.716;-4.948;2022-10-31T08:38:16;100611.84;;;17.14
63297;BMP280;49419;51.716;-4.948;2022-10-31T08:40:48;100611.00;;;17.18
63297;BMP280;49419;51.716;-4.948;2022-10-31T08:43:16;100603.22;;;17.16
63297;BMP280;49419;51.716;-4.948;2022-10-31T08:45:43;100619.69;;;17.20
63297;BMP280;49419;51.716;-4.948;2022-10-31T08:48:12;100605.81;;;17.18
63297;BMP280;49419;51.716;-4.948;2022-10-31T08:50:38;100604.97;;;17.20
63297;BMP280;49419;51.716;-4.948;2022-10-31T08:53:23;100604.13;;;17.20
63297;BMP280;49419;51.716;-4.948;2022-10-31T08:55:55;100600.63;;;17.18
63297;BMP280;49419;51.716;-4.948;2022-10-31T08:58:24;100598.03;;;17.18
63297;BMP280;49419;51.716;-4.948;2022-10-31T09:00:54;100592.88;;;17.16
63297;BMP280;49419;51.716;-4.948;2022-10-31T09:03:43;100590.22;;;17.12
63297;BMP280;49419;51.716;-4.948;2022-10-31T09:06:09;100591.88;;;17.10
63297;BMP280;49419;51.716;-4.948;2022-10-31T09:08:37;100578.94;;;17.10
63297;BMP280;49419;51.716;-4.948;2022-10-31T09:11:25;100582.47;;;17.13
63297;BMP280;49419;51.716;-4.948;2022-10-31T09:13:53;100579.91;;;17.16
63297;BMP280;49419;51.716;-4.948;2022-10-31T09:16:21;100583.38;;;17.20
63297;BMP280;49419;51.716;-4.948;2022-10-31T09:18:47;100566.06;;;17.16
63297;BMP280;49419;51.716;-4.948;2022-10-31T09:21:23;100566.09;;;17.22
63297;BMP280;49419;51.716;-4.948;2022-10-31T09:24:21;100563.50;;;17.19
63297;BMP280;49419;51.716;-4.948;2022-10-31T09:27:03;100559.16;;;17.19
63297;BMP280;49419;51.716;-4.948;2022-10-31T09:29:31;100561.84;;;17.25
63297;BMP280;49419;51.716;-4.948;2022-10-31T09:31:58;100561.00;;;17.28
63297;BMP280;49419;51.716;-4.948;2022-10-31T09:34:28;100554.94;;;17.29
63297;BMP280;49419;51.716;-4.948;2022-10-31T09:37:19;100549.78;;;17.33
63297;BMP280;49419;51.716;-4.948;2022-10-31T09:47:17;100544.59;;;17.36
63297;BMP280;49419;51.716;-4.948;2022-10-31T09:53:48;100543.78;;;17.41
63297;BMP280;49419;51.716;-4.948;2022-10-31T09:56:35;100531.63;;;17.36
63297;BMP280;49419;51.716;-4.948;2022-10-31T09:59:10;100533.38;;;17.37
63297;BMP280;49419;51.716;-4.948;2022-10-31T10:04:41;100527.38;;;17.45
63297;BMP280;49419;51.716;-4.948;2022-10-31T10:07:19;100507.56;;;17.56
63297;BMP280;49419;51.716;-4.948;2022-10-31T10:09:50;100524.06;;;17.66
63297;BMP280;49419;51.716;-4.948;2022-10-31T10:15:32;100515.50;;;17.75
63297;BMP280;49419;51.716;-4.948;2022-10-31T10:18:09;100512.00;;;17.73
63297;BMP280;49419;51.716;-4.948;2022-10-31T10:20:57;100507.69;;;17.74
63297;BMP280;49419;51.716;-4.948;2022-10-31T10:23:36;100499.03;;;17.75
63297;BMP280;49419;51.716;-4.948;2022-10-31T10:26:30;100488.69;;;17.78
63297;BMP280;49419;51.716;-4.948;2022-10-31T10:29:15;100487.81;;;17.85
63297;BMP280;49419;51.716;-4.948;2022-10-31T10:31:43;100489.56;;;17.87
63297;BMP280;49419;51.716;-4.948;2022-10-31T10:34:27;100486.13;;;17.94
63297;BMP280;49419;51.716;-4.948;2022-10-31T10:37:03;100474.06;;;17.95
63297;BMP280;49419;51.716;-4.948;2022-10-31T10:39:36;100480.13;;;18.02
63297;BMP280;49419;51.716;-4.948;2022-10-31T10:42:14;100472.38;;;18.08
63297;BMP280;49419;51.716;-4.948;2022-10-31T10:44:59;100475.84;;;18.07
63297;BMP280;49419;51.716;-4.948;2022-10-31T10:47:47;100472.41;;;18.07
63297;BMP280;49419;51.716;-4.948;2022-10-31T10:50:20;100468.91;;;18.05
63297;BMP280;49419;51.716;-4.948;2022-10-31T10:52:59;100471.53;;;18.09
63297;BMP280;49419;51.716;-4.948;2022-10-31T10:55:42;100472.38;;;18.05
63297;BMP280;49419;51.716;-4.948;2022-10-31T10:58:09;100462.88;;;18.04
63297;BMP280;49419;51.716;-4.948;2022-10-31T11:00:43;100462.00;;;18.07
63297;BMP280;49419;51.716;-4.948;2022-10-31T11:03:11;100460.28;;;18.07
63297;BMP280;49419;51.716;-4.948;2022-10-31T11:08:06;100457.69;;;18.07
63297;BMP280;49419;51.716;-4.948;2022-10-31T11:10:35;100443.78;;;18.00
63297;BMP280;49419;51.716;-4.948;2022-10-31T11:18:21;100436.81;;;17.93
63297;BMP280;49419;51.716;-4.948;2022-10-31T11:20:52;100443.75;;;17.94
63297;BMP280;49419;51.716;-4.948;2022-10-31T11:23:20;100435.94;;;17.97
63297;BMP280;49419;51.716;-4.948;2022-10-31T11:28:21;100429.06;;;18.03
63297;BMP280;49419;51.716;-4.948;2022-10-31T11:31:01;100434.25;;;18.03
63297;BMP280;49419;51.716;-4.948;2022-10-31T11:33:40;100429.09;;;18.06
63297;BMP280;49419;51.716;-4.948;2022-10-31T11:36:37;100423.03;;;18.04
63297;BMP280;49419;51.716;-4.948;2022-10-31T11:39:05;100413.47;;;18.03
63297;BMP280;49419;51.716;-4.948;2022-10-31T11:41:39;100404.84;;;18.02
63297;BMP280;49419;51.716;-4.948;2022-10-31T11:44:12;100406.56;;;18.02
63297;BMP280;49419;51.716;-4.948;2022-10-31T11:46:41;100401.34;;;17.96
63297;BMP280;49419;51.716;-4.948;2022-10-31T11:49:15;100407.41;;;17.97
63297;BMP280;49419;51.716;-4.948;2022-10-31T11:51:42;100392.69;;;17.90
63297;BMP280;49419;51.716;-4.948;2022-10-31T11:54:25;100392.69;;;17.90
63297;BMP280;49419;51.716;-4.948;2022-10-31T11:56:52;100382.28;;;17.91
63297;BMP280;49419;51.716;-4.948;2022-10-31T11:59:31;100385.78;;;17.95
63297;BMP280;49419;51.716;-4.948;2022-10-31T12:01:58;100378.84;;;17.95
63297;BMP280;49419;51.716;-4.948;2022-10-31T12:04:46;100378.84;;;17.98
63297;BMP280;49419;51.716;-4.948;2022-10-31T12:07:12;100372.81;;;17.98
63297;BMP280;49419;51.716;-4.948;2022-10-31T12:09:38;100363.25;;;17.94
63297;BMP280;49419;51.716;-4.948;2022-10-31T12:12:40;100377.97;;;17.89
63297;BMP280;49419;51.716;-4.948;2022-10-31T12:15:33;100356.31;;;17.81
63297;BMP280;49419;51.716;-4.948;2022-10-31T12:26:32;100347.56;;;17.55
63297;BMP280;49419;51.716;-4.948;2022-10-31T12:38:47;100326.75;;;17.38
63297;BMP280;49419;51.716;-4.948;2022-10-31T12:41:59;100325.03;;;17.41
63297;BMP280;49419;51.716;-4.948;2022-10-31T12:45:00;100306.84;;;17.39
63297;BMP280;49419;51.716;-4.948;2022-10-31T12:47:57;100304.28;;;17.38
63297;BMP280;49419;51.716;-4.948;2022-10-31T12:59:11;100265.34;;;17.39
63297;BMP280;49419;51.716;-4.948;2022-10-31T13:01:39;100260.19;;;17.41
63297;BMP280;49419;51.716;-4.948;2022-10-31T13:04:17;100263.63;;;17.41
63297;BMP280;49419;51.716;-4.948;2022-10-31T13:06:51;100267.13;;;17.42
63297;BMP280;49419;51.716;-4.948;2022-10-31T13:09:25;100249.81;;;17.41
63297;BMP280;49419;51.716;-4.948;2022-10-31T13:12:04;100223.84;;;17.39
63297;BMP280;49419;51.716;-4.948;2022-10-31T13:14:43;100200.53;;;17.41
63297;BMP280;49419;51.716;-4.948;2022-10-31T13:19:46;100202.25;;;17.39
63297;BMP280;49419;51.716;-4.948;2022-10-31T13:22:17;100213.47;;;17.34
63297;BMP280;49419;51.716;-4.948;2022-10-31T13:30:00;100184.94;;;17.31
63297;BMP280;49419;51.716;-4.948;2022-10-31T13:32:29;100166.81;;;17.28
63297;BMP280;49419;51.716;-4.948;2022-10-31T13:34:57;100165.94;;;17.30
63297;BMP280;49419;51.716;-4.948;2022-10-31T13:37:36;100146.06;;;17.28
63297;BMP280;49419;51.716;-4.948;2022-10-31T13:43:02;100143.44;;;17.39
63297;BMP280;49419;51.716;-4.948;2022-10-31T13:45:32;100144.31;;;17.38
63297;BMP280;49419;51.716;-4.948;2022-10-31T13:48:00;100128.78;;;17.38
63297;BMP280;49419;51.716;-4.948;2022-10-31T13:50:31;100138.28;;;17.42
63297;BMP280;49419;51.716;-4.948;2022-10-31T13:53:13;100118.41;;;17.40
63297;BMP280;49419;51.716;-4.948;2022-10-31T13:58:20;100115.81;;;17.44
63297;BMP280;49419;51.716;-4.948;2022-10-31T14:03:42;100104.53;;;17.39
63297;BMP280;49419;51.716;-4.948;2022-10-31T14:06:10;100093.31;;;17.39
63297;BMP280;49419;51.716;-4.948;2022-10-31T14:08:41;100096.78;;;17.35
63297;BMP280;49419;51.716;-4.948;2022-10-31T14:11:19;100089.84;;;17.37
63297;BMP280;49419;51.716;-4.948;2022-10-31T14:13:46;100089.88;;;17.36
63297;BMP280;49419;51.716;-4.948;2022-10-31T14:16:23;100075.19;;;17.40
63297;BMP280;49419;51.716;-4.948;2022-10-31T14:19:04;100082.06;;;17.41
63297;BMP280;49419;51.716;-4.948;2022-10-31T14:27:03;100059.63;;;17.45
63297;BMP280;49419;51.716;-4.948;2022-10-31T14:29:31;100045.75;;;17.41
63297;BMP280;49419;51.716;-4.948;2022-10-31T14:34:39;100045.75;;;17.41
63297;BMP280;49419;51.716;-4.948;2022-10-31T14:43:16;100009.47;;;17.38
63297;BMP280;49419;51.716;-4.948;2022-10-31T14:51:10;100006.00;;;17.37
63297;BMP280;49419;51.716;-4.948;2022-10-31T14:53:56;100004.31;;;17.33
63297;BMP280;49419;51.716;-4.948;2022-10-31T14:56:30;99980.06;;;17.34
63297;BMP280;49419;51.716;-4.948;2022-10-31T14:59:00;99990.44;;;17.34
63297;BMP280;49419;51.716;-4.948;2022-10-31T15:01:33;99980.94;;;17.34
63297;BMP280;49419;51.716;-4.948;2022-10-31T15:04:14;99969.72;;;17.34
63297;BMP280;49419;51.716;-4.948;2022-10-31T15:06:53;99967.13;;;17.31
63297;BMP280;49419;51.716;-4.948;2022-10-31T15:09:26;99964.53;;;17.34
63297;BMP280;49419;51.716;-4.948;2022-10-31T15:11:52;99948.97;;;17.34
63297;BMP280;49419;51.716;-4.948;2022-10-31T15:14:23;99955.03;;;17.33
63297;BMP280;49419;51.716;-4.948;2022-10-31T15:16:49;99951.56;;;17.31
63297;BMP280;49419;51.716;-4.948;2022-10-31T15:19:20;99944.66;;;17.28
63297;BMP280;49419;51.716;-4.948;2022-10-31T15:21:47;99950.69;;;17.29
63297;BMP280;49419;51.716;-4.948;2022-10-31T15:24:14;99944.66;;;17.28
63297;BMP280;49419;51.716;-4.948;2022-10-31T15:26:53;99936.00;;;17.26
63297;BMP280;49419;51.716;-4.948;2022-10-31T15:29:21;99928.22;;;17.26
63297;BMP280;49419;51.716;-4.948;2022-10-31T15:31:55;99926.50;;;17.27
63297;BMP280;49419;51.716;-4.948;2022-10-31T15:36:55;99919.59;;;17.26
63297;BMP280;49419;51.716;-4.948;2022-10-31T15:39:21;99919.56;;;17.23
63297;BMP280;49419;51.716;-4.948;2022-10-31T15:41:57;99900.59;;;17.21
63297;BMP280;49419;51.716;-4.948;2022-10-31T15:44:26;99904.03;;;17.15
63297;BMP280;49419;51.716;-4.948;2022-10-31T15:47:00;99901.47;;;17.14
63297;BMP280;49419;51.716;-4.948;2022-10-31T15:49:33;99876.38;;;17.13
63297;BMP280;49419;51.716;-4.948;2022-10-31T15:55:03;99859.06;;;17.06
63297;BMP280;49419;51.716;-4.948;2022-10-31T15:57:32;99875.53;;;17.06
63297;BMP280;49419;51.716;-4.948;2022-10-31T16:00:02;99862.56;;;17.02
63297;BMP280;49419;51.716;-4.948;2022-10-31T16:02:28;99855.63;;;17.01
63297;BMP280;49419;51.716;-4.948;2022-10-31T16:05:17;99837.50;;;17.00
63297;BMP280;49419;51.716;-4.948;2022-10-31T16:07:50;99832.31;;;16.98